Startpagina
METAR-TAF:

METAR-TAF

Vliegvelden :

Roman Tmetuchl International Airport

Koror, Babeldaob, Palau

breedte: 07-22N, lengte: 134-32E, hoogte: 54 m

Actueel weer

Dit bericht is 41 minuten geleden gemaakt, om 09:50 UTC
Wind 3 kt uit het westnoordwesten
Temperatuur 28°C
Vochtigheid 74%
Druk 1009 hPa
Zicht: 24.1 km
Verspreide wolken op 1700 ft
Verspreide wolken op 12000 ft
Gebroken wolken op 30000 ft

METAR: PTRO 200950Z 30003KT 15SM SCT017 SCT120 BKN300 28/23 A2981

Tijdstip: 19:31 (10:31 UTC)

Verwachting

Dit bericht is 4 uur en het 56 minuten geleden gemaakt, om 05:35 UTC
Verwachting geldig van 20 om 06 UTC tot 21 om 06 UTC
Wind 10 kt uit het westnoordwesten
Zicht: 10 km
Verspreide wolken op 1600 ft
Verspreide wolken op 12000 ft
buien in de omgeving

TAF: PTRO 200535Z 2006/2106 30010KT P6SM VCSH SCT016 SCT120

Waarnemingen en weersverwachtingen van meer dan 4000 vliegvelden (METAR en TAF).

De beschikbare stations zijn de gele en rode punten op de kaart.

Ga met uw muis naar het station om de naam te zien.

Klik dan om waarnemingen en weersverwachtingen te zien.

kaart wijzigen: klik op de groene knoppen met een zwart kruis om in te zoomen, op de groene knop met een streepje om uit te zoomen of op de groene pijlen voor aangrenzende kaarten.


METAR-TAF: